Osakis, Minnesota
Current Conditions -  °F | °C
As of 3:53 PM on Monday 20 Oct 2014 (Local Time) from KAXN Reporting Station
Clear Clear  
Wind Chill: 17°   Ceiling: Unl
Heat Index: 17°   Visibility: 10mi
Dew Point:   Wind: 10mph
Humidity: 35%   Direction: 310°NW
Pressure: 30.02"   Gusts: NA
Location:  45.87°N, 95.15°W
Report Text: KAXN 202053Z AUTO 31009KT 10SM CLR 17/02 A3002 RMK AO2 SLP172 T01720017 55007
Loading
Personal Weather Stations






























Interactive Weather Map
Tropical Storm Tracking
New forecast layout! Learn more

10-Day Weather Forecast

Advertisements
Track Severe Weather on mobile